sensor_id;sensor_type;location;lat;lon;timestamp;P1;durP1;ratioP1;P2;durP2;ratioP2
77586;SDS011;66744;49.716;17.158;2023-03-13T00:01:58;10.98;;;7.32;;
77586;SDS011;66744;49.716;17.158;2023-03-13T00:05:00;15.70;;;8.52;;
77586;SDS011;66744;49.716;17.158;2023-03-13T00:08:02;13.25;;;7.85;;
77586;SDS011;66744;49.716;17.158;2023-03-13T00:11:04;12.65;;;7.60;;
77586;SDS011;66744;49.716;17.158;2023-03-13T00:14:09;9.35;;;6.82;;
77586;SDS011;66744;49.716;17.158;2023-03-13T00:17:10;7.60;;;6.25;;
77586;SDS011;66744;49.716;17.158;2023-03-13T00:20:11;8.05;;;6.20;;
77586;SDS011;66744;49.716;17.158;2023-03-13T00:23:13;8.43;;;6.38;;
77586;SDS011;66744;49.716;17.158;2023-03-13T00:26:17;9.32;;;5.40;;
77586;SDS011;66744;49.716;17.158;2023-03-13T00:29:21;7.47;;;4.95;;
77586;SDS011;66744;49.716;17.158;2023-03-13T00:32:23;6.50;;;4.47;;
77586;SDS011;66744;49.716;17.158;2023-03-13T00:35:25;8.48;;;6.88;;
77586;SDS011;66744;49.716;17.158;2023-03-13T00:38:27;7.70;;;5.45;;
77586;SDS011;66744;49.716;17.158;2023-03-13T00:41:30;8.43;;;6.50;;
77586;SDS011;66744;49.716;17.158;2023-03-13T00:44:32;8.07;;;5.90;;
77586;SDS011;66744;49.716;17.158;2023-03-13T00:47:33;8.95;;;5.47;;
77586;SDS011;66744;49.716;17.158;2023-03-13T00:50:36;7.00;;;5.43;;
77586;SDS011;66744;49.716;17.158;2023-03-13T00:53:37;11.70;;;7.68;;
77586;SDS011;66744;49.716;17.158;2023-03-13T00:56:39;9.82;;;6.35;;
77586;SDS011;66744;49.716;17.158;2023-03-13T00:59:40;8.80;;;5.50;;
77586;SDS011;66744;49.716;17.158;2023-03-13T01:02:42;5.10;;;4.10;;
77586;SDS011;66744;49.716;17.158;2023-03-13T01:05:44;7.40;;;5.25;;
77586;SDS011;66744;49.716;17.158;2023-03-13T01:08:46;6.10;;;4.35;;
77586;SDS011;66744;49.716;17.158;2023-03-13T01:11:48;6.85;;;4.85;;
77586;SDS011;66744;49.716;17.158;2023-03-13T01:14:49;9.77;;;5.90;;
77586;SDS011;66744;49.716;17.158;2023-03-13T01:17:50;9.20;;;5.97;;
77586;SDS011;66744;49.716;17.158;2023-03-13T01:20:52;7.82;;;5.53;;
77586;SDS011;66744;49.716;17.158;2023-03-13T01:23:53;8.10;;;6.00;;
77586;SDS011;66744;49.716;17.158;2023-03-13T01:26:54;6.75;;;4.32;;
77586;SDS011;66744;49.716;17.158;2023-03-13T01:29:57;8.88;;;6.10;;
77586;SDS011;66744;49.716;17.158;2023-03-13T01:32:58;7.65;;;5.85;;
77586;SDS011;66744;49.716;17.158;2023-03-13T01:36:00;7.45;;;5.35;;
77586;SDS011;66744;49.716;17.158;2023-03-13T01:39:03;7.68;;;4.82;;
77586;SDS011;66744;49.716;17.158;2023-03-13T01:42:06;7.07;;;4.28;;
77586;SDS011;66744;49.716;17.158;2023-03-13T01:45:48;7.05;;;4.47;;
77586;SDS011;66744;49.716;17.158;2023-03-13T01:51:57;7.65;;;4.57;;
77586;SDS011;66744;49.716;17.158;2023-03-13T01:55:10;7.55;;;5.15;;
77586;SDS011;66744;49.716;17.158;2023-03-13T01:58:18;7.45;;;4.57;;
77586;SDS011;66744;49.716;17.158;2023-03-13T02:01:20;7.97;;;4.95;;
77586;SDS011;66744;49.716;17.158;2023-03-13T02:04:23;9.02;;;5.30;;
77586;SDS011;66744;49.716;17.158;2023-03-13T02:07:31;8.80;;;5.82;;
77586;SDS011;66744;49.716;17.158;2023-03-13T02:10:37;8.10;;;5.03;;
77586;SDS011;66744;49.716;17.158;2023-03-13T02:13:43;8.73;;;5.43;;
77586;SDS011;66744;49.716;17.158;2023-03-13T02:16:44;9.65;;;4.55;;
77586;SDS011;66744;49.716;17.158;2023-03-13T02:19:49;11.18;;;5.43;;
77586;SDS011;66744;49.716;17.158;2023-03-13T02:22:59;6.15;;;4.88;;
77586;SDS011;66744;49.716;17.158;2023-03-13T02:26:04;7.20;;;5.55;;
77586;SDS011;66744;49.716;17.158;2023-03-13T02:29:08;7.90;;;5.03;;
77586;SDS011;66744;49.716;17.158;2023-03-13T02:32:18;8.68;;;5.28;;
77586;SDS011;66744;49.716;17.158;2023-03-13T02:35:20;5.13;;;3.83;;
77586;SDS011;66744;49.716;17.158;2023-03-13T02:38:24;7.55;;;5.60;;
77586;SDS011;66744;49.716;17.158;2023-03-13T02:41:29;8.10;;;5.38;;
77586;SDS011;66744;49.716;17.158;2023-03-13T02:44:36;7.85;;;4.82;;
77586;SDS011;66744;49.716;17.158;2023-03-13T02:47:40;6.28;;;4.90;;
77586;SDS011;66744;49.716;17.158;2023-03-13T02:50:41;6.28;;;5.35;;
77586;SDS011;66744;49.716;17.158;2023-03-13T02:53:43;6.65;;;4.20;;
77586;SDS011;66744;49.716;17.158;2023-03-13T02:56:47;6.47;;;4.38;;
77586;SDS011;66744;49.716;17.158;2023-03-13T02:59:51;6.80;;;4.47;;
77586;SDS011;66744;49.716;17.158;2023-03-13T03:02:53;5.20;;;4.50;;
77586;SDS011;66744;49.716;17.158;2023-03-13T03:05:55;7.50;;;5.07;;
77586;SDS011;66744;49.716;17.158;2023-03-13T03:08:57;7.22;;;4.95;;
77586;SDS011;66744;49.716;17.158;2023-03-13T03:12:00;7.55;;;4.50;;
77586;SDS011;66744;49.716;17.158;2023-03-13T03:15:03;7.28;;;4.95;;
77586;SDS011;66744;49.716;17.158;2023-03-13T03:18:06;5.70;;;4.80;;
77586;SDS011;66744;49.716;17.158;2023-03-13T03:21:08;7.35;;;4.40;;
77586;SDS011;66744;49.716;17.158;2023-03-13T03:24:12;6.03;;;4.82;;
77586;SDS011;66744;49.716;17.158;2023-03-13T03:27:14;5.78;;;3.58;;
77586;SDS011;66744;49.716;17.158;2023-03-13T03:30:21;6.88;;;4.13;;
77586;SDS011;66744;49.716;17.158;2023-03-13T03:33:22;7.97;;;4.38;;
77586;SDS011;66744;49.716;17.158;2023-03-13T03:36:24;7.18;;;5.70;;
77586;SDS011;66744;49.716;17.158;2023-03-13T03:39:26;6.22;;;4.30;;
77586;SDS011;66744;49.716;17.158;2023-03-13T03:42:27;6.65;;;5.00;;
77586;SDS011;66744;49.716;17.158;2023-03-13T03:45:29;5.15;;;4.07;;
77586;SDS011;66744;49.716;17.158;2023-03-13T03:48:30;6.90;;;5.15;;
77586;SDS011;66744;49.716;17.158;2023-03-13T03:51:32;7.22;;;4.00;;
77586;SDS011;66744;49.716;17.158;2023-03-13T03:54:34;7.65;;;5.00;;
77586;SDS011;66744;49.716;17.158;2023-03-13T03:57:35;4.85;;;3.83;;
77586;SDS011;66744;49.716;17.158;2023-03-13T04:00:38;4.93;;;3.78;;
77586;SDS011;66744;49.716;17.158;2023-03-13T04:03:39;8.60;;;4.20;;
77586;SDS011;66744;49.716;17.158;2023-03-13T04:06:41;6.60;;;4.68;;
77586;SDS011;66744;49.716;17.158;2023-03-13T04:09:43;7.30;;;5.13;;
77586;SDS011;66744;49.716;17.158;2023-03-13T04:12:53;6.28;;;4.88;;
77586;SDS011;66744;49.716;17.158;2023-03-13T04:15:55;7.07;;;5.10;;
77586;SDS011;66744;49.716;17.158;2023-03-13T04:18:56;7.57;;;5.00;;
77586;SDS011;66744;49.716;17.158;2023-03-13T04:22:00;7.75;;;5.93;;
77586;SDS011;66744;49.716;17.158;2023-03-13T04:25:01;6.78;;;5.03;;
77586;SDS011;66744;49.716;17.158;2023-03-13T04:28:05;7.53;;;5.43;;
77586;SDS011;66744;49.716;17.158;2023-03-13T04:31:13;6.25;;;5.20;;
77586;SDS011;66744;49.716;17.158;2023-03-13T04:34:32;8.73;;;4.78;;
77586;SDS011;66744;49.716;17.158;2023-03-13T04:37:40;6.88;;;4.88;;
77586;SDS011;66744;49.716;17.158;2023-03-13T04:41:10;7.22;;;5.25;;
77586;SDS011;66744;49.716;17.158;2023-03-13T04:44:31;7.95;;;5.00;;
77586;SDS011;66744;49.716;17.158;2023-03-13T04:47:55;8.15;;;5.60;;
77586;SDS011;66744;49.716;17.158;2023-03-13T04:51:22;7.78;;;5.13;;
77586;SDS011;66744;49.716;17.158;2023-03-13T04:54:43;6.75;;;5.25;;
77586;SDS011;66744;49.716;17.158;2023-03-13T04:57:54;10.70;;;5.82;;
77586;SDS011;66744;49.716;17.158;2023-03-13T05:01:09;7.78;;;4.90;;
77586;SDS011;66744;49.716;17.158;2023-03-13T05:04:42;8.13;;;5.03;;
77586;SDS011;66744;49.716;17.158;2023-03-13T05:07:58;7.85;;;4.38;;
77586;SDS011;66744;49.716;17.158;2023-03-13T05:14:35;8.75;;;5.50;;
77586;SDS011;66744;49.716;17.158;2023-03-13T05:18:05;8.85;;;6.60;;
77586;SDS011;66744;49.716;17.158;2023-03-13T05:21:25;7.18;;;5.43;;
77586;SDS011;66744;49.716;17.158;2023-03-13T05:24:50;11.13;;;6.22;;
77586;SDS011;66744;49.716;17.158;2023-03-13T05:28:23;10.40;;;5.85;;
77586;SDS011;66744;49.716;17.158;2023-03-13T05:31:52;6.80;;;4.50;;
77586;SDS011;66744;49.716;17.158;2023-03-13T05:35:25;8.30;;;5.70;;
77586;SDS011;66744;49.716;17.158;2023-03-13T05:38:52;7.20;;;5.10;;
77586;SDS011;66744;49.716;17.158;2023-03-13T05:42:14;9.52;;;5.90;;
77586;SDS011;66744;49.716;17.158;2023-03-13T05:45:34;10.48;;;6.38;;
77586;SDS011;66744;49.716;17.158;2023-03-13T05:49:01;11.65;;;6.85;;
77586;SDS011;66744;49.716;17.158;2023-03-13T05:52:32;9.88;;;5.40;;
77586;SDS011;66744;49.716;17.158;2023-03-13T05:55:39;9.27;;;5.85;;
77586;SDS011;66744;49.716;17.158;2023-03-13T05:59:01;10.63;;;7.40;;
77586;SDS011;66744;49.716;17.158;2023-03-13T06:02:23;11.23;;;7.15;;
77586;SDS011;66744;49.716;17.158;2023-03-13T06:05:25;9.38;;;6.43;;
77586;SDS011;66744;49.716;17.158;2023-03-13T06:08:30;10.32;;;6.72;;
77586;SDS011;66744;49.716;17.158;2023-03-13T06:11:32;6.93;;;5.28;;
77586;SDS011;66744;49.716;17.158;2023-03-13T06:14:34;10.73;;;5.90;;
77586;SDS011;66744;49.716;17.158;2023-03-13T06:17:50;8.27;;;6.00;;
77586;SDS011;66744;49.716;17.158;2023-03-13T06:20:58;8.98;;;5.97;;
77586;SDS011;66744;49.716;17.158;2023-03-13T06:24:01;8.70;;;6.32;;
77586;SDS011;66744;49.716;17.158;2023-03-13T06:27:03;9.80;;;6.75;;
77586;SDS011;66744;49.716;17.158;2023-03-13T06:30:04;9.13;;;6.28;;
77586;SDS011;66744;49.716;17.158;2023-03-13T06:33:06;7.28;;;5.82;;
77586;SDS011;66744;49.716;17.158;2023-03-13T06:36:07;10.15;;;7.47;;
77586;SDS011;66744;49.716;17.158;2023-03-13T06:39:09;11.45;;;6.95;;
77586;SDS011;66744;49.716;17.158;2023-03-13T06:42:11;10.20;;;6.40;;
77586;SDS011;66744;49.716;17.158;2023-03-13T06:45:13;8.00;;;5.93;;
77586;SDS011;66744;49.716;17.158;2023-03-13T06:48:14;9.68;;;6.60;;
77586;SDS011;66744;49.716;17.158;2023-03-13T06:51:16;10.82;;;5.97;;
77586;SDS011;66744;49.716;17.158;2023-03-13T06:54:19;9.45;;;7.10;;
77586;SDS011;66744;49.716;17.158;2023-03-13T06:57:20;9.55;;;6.32;;
77586;SDS011;66744;49.716;17.158;2023-03-13T07:00:21;8.23;;;5.28;;
77586;SDS011;66744;49.716;17.158;2023-03-13T07:03:23;10.57;;;5.90;;
77586;SDS011;66744;49.716;17.158;2023-03-13T07:06:24;8.32;;;5.68;;
77586;SDS011;66744;49.716;17.158;2023-03-13T07:09:26;7.70;;;5.10;;
77586;SDS011;66744;49.716;17.158;2023-03-13T07:12:28;10.82;;;6.65;;
77586;SDS011;66744;49.716;17.158;2023-03-13T07:15:29;9.95;;;6.43;;
77586;SDS011;66744;49.716;17.158;2023-03-13T07:18:30;9.98;;;6.70;;
77586;SDS011;66744;49.716;17.158;2023-03-13T07:21:32;8.45;;;5.47;;
77586;SDS011;66744;49.716;17.158;2023-03-13T07:24:34;11.15;;;5.50;;
77586;SDS011;66744;49.716;17.158;2023-03-13T07:27:35;10.93;;;6.38;;
77586;SDS011;66744;49.716;17.158;2023-03-13T07:30:38;10.63;;;7.05;;
77586;SDS011;66744;49.716;17.158;2023-03-13T07:33:39;7.95;;;5.10;;
77586;SDS011;66744;49.716;17.158;2023-03-13T07:36:41;8.68;;;6.00;;
77586;SDS011;66744;49.716;17.158;2023-03-13T07:39:43;10.07;;;4.70;;
77586;SDS011;66744;49.716;17.158;2023-03-13T07:42:44;7.32;;;5.57;;
77586;SDS011;66744;49.716;17.158;2023-03-13T07:45:55;10.52;;;5.75;;
77586;SDS011;66744;49.716;17.158;2023-03-13T07:49:04;6.35;;;4.65;;
77586;SDS011;66744;49.716;17.158;2023-03-13T07:52:05;7.13;;;6.05;;
77586;SDS011;66744;49.716;17.158;2023-03-13T07:55:07;7.07;;;4.68;;
77586;SDS011;66744;49.716;17.158;2023-03-13T07:58:08;7.00;;;4.70;;
77586;SDS011;66744;49.716;17.158;2023-03-13T08:01:16;6.97;;;4.90;;
77586;SDS011;66744;49.716;17.158;2023-03-13T08:04:22;8.20;;;5.15;;
77586;SDS011;66744;49.716;17.158;2023-03-13T08:07:23;8.18;;;4.93;;
77586;SDS011;66744;49.716;17.158;2023-03-13T08:10:24;8.15;;;4.57;;
77586;SDS011;66744;49.716;17.158;2023-03-13T08:13:26;9.85;;;4.40;;
77586;SDS011;66744;49.716;17.158;2023-03-13T08:16:28;7.05;;;4.65;;
77586;SDS011;66744;49.716;17.158;2023-03-13T08:19:31;7.72;;;5.10;;
77586;SDS011;66744;49.716;17.158;2023-03-13T08:22:33;7.93;;;4.78;;
77586;SDS011;66744;49.716;17.158;2023-03-13T08:25:34;5.63;;;4.75;;
77586;SDS011;66744;49.716;17.158;2023-03-13T08:28:35;6.13;;;4.38;;
77586;SDS011;66744;49.716;17.158;2023-03-13T08:31:41;8.18;;;5.60;;
77586;SDS011;66744;49.716;17.158;2023-03-13T08:34:44;8.75;;;6.00;;
77586;SDS011;66744;49.716;17.158;2023-03-13T08:37:45;5.75;;;4.28;;
77586;SDS011;66744;49.716;17.158;2023-03-13T08:40:47;7.30;;;4.25;;
77586;SDS011;66744;49.716;17.158;2023-03-13T08:43:50;9.68;;;5.90;;
77586;SDS011;66744;49.716;17.158;2023-03-13T08:46:52;9.20;;;5.93;;
77586;SDS011;66744;49.716;17.158;2023-03-13T08:49:53;13.65;;;6.30;;
77586;SDS011;66744;49.716;17.158;2023-03-13T08:52:55;8.75;;;5.63;;
77586;SDS011;66744;49.716;17.158;2023-03-13T08:55:56;7.15;;;4.72;;
77586;SDS011;66744;49.716;17.158;2023-03-13T08:58:58;7.35;;;5.25;;
77586;SDS011;66744;49.716;17.158;2023-03-13T09:02:01;8.80;;;5.07;;
77586;SDS011;66744;49.716;17.158;2023-03-13T09:05:03;7.43;;;4.63;;
77586;SDS011;66744;49.716;17.158;2023-03-13T09:08:05;6.32;;;5.32;;
77586;SDS011;66744;49.716;17.158;2023-03-13T09:11:07;8.02;;;5.07;;
77586;SDS011;66744;49.716;17.158;2023-03-13T09:14:10;9.27;;;5.05;;
77586;SDS011;66744;49.716;17.158;2023-03-13T09:17:11;7.47;;;5.05;;
77586;SDS011;66744;49.716;17.158;2023-03-13T09:20:13;7.10;;;4.50;;
77586;SDS011;66744;49.716;17.158;2023-03-13T09:23:14;4.72;;;4.13;;
77586;SDS011;66744;49.716;17.158;2023-03-13T09:26:16;5.45;;;4.35;;
77586;SDS011;66744;49.716;17.158;2023-03-13T09:29:19;9.10;;;3.75;;
77586;SDS011;66744;49.716;17.158;2023-03-13T09:32:20;4.63;;;3.75;;
77586;SDS011;66744;49.716;17.158;2023-03-13T09:35:26;9.48;;;4.28;;
77586;SDS011;66744;49.716;17.158;2023-03-13T09:38:27;4.95;;;3.25;;
77586;SDS011;66744;49.716;17.158;2023-03-13T09:41:32;13.15;;;4.57;;
77586;SDS011;66744;49.716;17.158;2023-03-13T09:44:54;9.55;;;4.40;;
77586;SDS011;66744;49.716;17.158;2023-03-13T09:48:01;9.15;;;3.78;;
77586;SDS011;66744;49.716;17.158;2023-03-13T09:51:17;6.82;;;3.85;;
77586;SDS011;66744;49.716;17.158;2023-03-13T09:54:24;7.07;;;3.10;;
77586;SDS011;66744;49.716;17.158;2023-03-13T09:57:32;9.43;;;3.78;;
77586;SDS011;66744;49.716;17.158;2023-03-13T10:00:37;5.75;;;4.05;;
77586;SDS011;66744;49.716;17.158;2023-03-13T10:03:44;10.73;;;4.80;;
77586;SDS011;66744;49.716;17.158;2023-03-13T10:06:56;8.90;;;3.85;;
77586;SDS011;66744;49.716;17.158;2023-03-13T10:09:59;7.38;;;3.45;;
77586;SDS011;66744;49.716;17.158;2023-03-13T10:13:09;6.30;;;3.47;;
77586;SDS011;66744;49.716;17.158;2023-03-13T10:16:26;7.55;;;3.10;;
77586;SDS011;66744;49.716;17.158;2023-03-13T10:19:39;8.02;;;3.83;;
77586;SDS011;66744;49.716;17.158;2023-03-13T10:22:47;9.40;;;4.10;;
77586;SDS011;66744;49.716;17.158;2023-03-13T10:26:14;7.28;;;2.75;;
77586;SDS011;66744;49.716;17.158;2023-03-13T10:32:21;6.72;;;3.08;;
77586;SDS011;66744;49.716;17.158;2023-03-13T10:35:23;6.22;;;3.28;;
77586;SDS011;66744;49.716;17.158;2023-03-13T10:38:32;7.30;;;3.88;;
77586;SDS011;66744;49.716;17.158;2023-03-13T10:41:35;6.95;;;3.65;;
77586;SDS011;66744;49.716;17.158;2023-03-13T10:44:38;5.25;;;2.97;;
77586;SDS011;66744;49.716;17.158;2023-03-13T10:47:39;7.03;;;3.60;;
77586;SDS011;66744;49.716;17.158;2023-03-13T10:50:44;7.47;;;3.53;;
77586;SDS011;66744;49.716;17.158;2023-03-13T10:53:47;8.38;;;3.30;;
77586;SDS011;66744;49.716;17.158;2023-03-13T10:56:49;10.95;;;3.67;;
77586;SDS011;66744;49.716;17.158;2023-03-13T10:59:51;7.47;;;4.22;;
77586;SDS011;66744;49.716;17.158;2023-03-13T11:02:53;8.27;;;4.05;;
77586;SDS011;66744;49.716;17.158;2023-03-13T11:06:03;9.35;;;4.88;;
77586;SDS011;66744;49.716;17.158;2023-03-13T11:09:15;8.57;;;5.72;;
77586;SDS011;66744;49.716;17.158;2023-03-13T11:12:20;10.68;;;5.03;;
77586;SDS011;66744;49.716;17.158;2023-03-13T11:15:28;8.02;;;5.15;;
77586;SDS011;66744;49.716;17.158;2023-03-13T11:21:43;6.45;;;4.20;;
77586;SDS011;66744;49.716;17.158;2023-03-13T11:28:13;8.88;;;4.80;;
77586;SDS011;66744;49.716;17.158;2023-03-13T11:34:43;8.27;;;4.75;;
77586;SDS011;66744;49.716;17.158;2023-03-13T11:37:53;5.57;;;4.13;;
77586;SDS011;66744;49.716;17.158;2023-03-13T11:47:19;6.43;;;4.13;;
77586;SDS011;66744;49.716;17.158;2023-03-13T11:50:50;9.40;;;5.10;;
77586;SDS011;66744;49.716;17.158;2023-03-13T12:01:07;10.30;;;5.88;;
77586;SDS011;66744;49.716;17.158;2023-03-13T12:04:32;8.75;;;6.60;;
77586;SDS011;66744;49.716;17.158;2023-03-13T12:07:50;7.00;;;5.35;;
77586;SDS011;66744;49.716;17.158;2023-03-13T12:30:02;7.63;;;5.13;;
77586;SDS011;66744;49.716;17.158;2023-03-13T12:33:28;7.47;;;4.85;;
77586;SDS011;66744;49.716;17.158;2023-03-13T12:36:35;7.63;;;6.15;;
77586;SDS011;66744;49.716;17.158;2023-03-13T12:39:42;9.73;;;6.05;;
77586;SDS011;66744;49.716;17.158;2023-03-13T12:52:39;8.27;;;5.50;;
77586;SDS011;66744;49.716;17.158;2023-03-13T12:56:21;10.27;;;5.22;;
77586;SDS011;66744;49.716;17.158;2023-03-13T12:59:55;8.77;;;5.32;;
77586;SDS011;66744;49.716;17.158;2023-03-13T13:06:19;8.80;;;5.85;;
77586;SDS011;66744;49.716;17.158;2023-03-13T13:09:22;12.80;;;5.75;;
77586;SDS011;66744;49.716;17.158;2023-03-13T13:12:25;8.68;;;4.90;;
77586;SDS011;66744;49.716;17.158;2023-03-13T13:15:26;9.13;;;5.18;;
77586;SDS011;66744;49.716;17.158;2023-03-13T13:18:30;8.45;;;6.18;;
77586;SDS011;66744;49.716;17.158;2023-03-13T13:21:32;11.85;;;5.88;;
77586;SDS011;66744;49.716;17.158;2023-03-13T13:24:38;8.20;;;5.55;;
77586;SDS011;66744;49.716;17.158;2023-03-13T13:27:51;7.38;;;5.75;;
77586;SDS011;66744;49.716;17.158;2023-03-13T13:30:53;8.05;;;5.60;;
77586;SDS011;66744;49.716;17.158;2023-03-13T13:33:55;6.75;;;5.10;;
77586;SDS011;66744;49.716;17.158;2023-03-13T13:36:57;8.07;;;5.93;;
77586;SDS011;66744;49.716;17.158;2023-03-13T13:40:20;8.05;;;5.13;;
77586;SDS011;66744;49.716;17.158;2023-03-13T13:43:28;7.22;;;4.43;;
77586;SDS011;66744;49.716;17.158;2023-03-13T13:46:44;8.15;;;5.13;;
77586;SDS011;66744;49.716;17.158;2023-03-13T13:49:55;9.10;;;5.07;;
77586;SDS011;66744;49.716;17.158;2023-03-13T13:59:50;11.60;;;5.90;;
77586;SDS011;66744;49.716;17.158;2023-03-13T14:02:53;10.90;;;5.72;;
77586;SDS011;66744;49.716;17.158;2023-03-13T14:06:02;5.25;;;4.50;;
77586;SDS011;66744;49.716;17.158;2023-03-13T14:12:44;8.65;;;5.47;;
77586;SDS011;66744;49.716;17.158;2023-03-13T14:15:56;8.75;;;5.30;;
77586;SDS011;66744;49.716;17.158;2023-03-13T14:22:45;6.75;;;4.65;;
77586;SDS011;66744;49.716;17.158;2023-03-13T14:25:50;5.75;;;4.20;;
77586;SDS011;66744;49.716;17.158;2023-03-13T14:28:55;7.47;;;4.60;;
77586;SDS011;66744;49.716;17.158;2023-03-13T14:31:59;5.43;;;4.03;;
77586;SDS011;66744;49.716;17.158;2023-03-13T14:35:00;7.35;;;4.80;;
77586;SDS011;66744;49.716;17.158;2023-03-13T14:38:03;7.40;;;3.88;;
77586;SDS011;66744;49.716;17.158;2023-03-13T14:41:04;7.10;;;4.22;;
77586;SDS011;66744;49.716;17.158;2023-03-13T14:44:12;6.43;;;4.07;;
77586;SDS011;66744;49.716;17.158;2023-03-13T14:47:27;9.57;;;5.90;;
77586;SDS011;66744;49.716;17.158;2023-03-13T14:50:32;7.07;;;4.78;;
77586;SDS011;66744;49.716;17.158;2023-03-13T14:53:35;6.68;;;4.47;;
77586;SDS011;66744;49.716;17.158;2023-03-13T14:56:37;7.45;;;4.70;;
77586;SDS011;66744;49.716;17.158;2023-03-13T14:59:43;9.32;;;6.28;;
77586;SDS011;66744;49.716;17.158;2023-03-13T15:02:44;9.15;;;5.57;;
77586;SDS011;66744;49.716;17.158;2023-03-13T15:09:26;6.70;;;5.07;;
77586;SDS011;66744;49.716;17.158;2023-03-13T15:12:27;11.70;;;5.57;;
77586;SDS011;66744;49.716;17.158;2023-03-13T15:15:31;8.70;;;5.28;;
77586;SDS011;66744;49.716;17.158;2023-03-13T15:18:33;6.88;;;5.07;;
77586;SDS011;66744;49.716;17.158;2023-03-13T15:21:34;7.53;;;4.65;;
77586;SDS011;66744;49.716;17.158;2023-03-13T15:24:36;6.88;;;4.30;;
77586;SDS011;66744;49.716;17.158;2023-03-13T15:27:37;4.88;;;3.58;;
77586;SDS011;66744;49.716;17.158;2023-03-13T15:30:39;6.95;;;4.57;;
77586;SDS011;66744;49.716;17.158;2023-03-13T15:33:41;5.70;;;4.45;;
77586;SDS011;66744;49.716;17.158;2023-03-13T15:36:45;6.00;;;4.50;;
77586;SDS011;66744;49.716;17.158;2023-03-13T15:39:46;6.50;;;4.32;;
77586;SDS011;66744;49.716;17.158;2023-03-13T15:42:49;7.45;;;4.60;;
77586;SDS011;66744;49.716;17.158;2023-03-13T15:45:51;8.18;;;4.13;;
77586;SDS011;66744;49.716;17.158;2023-03-13T15:48:52;6.70;;;3.83;;
77586;SDS011;66744;49.716;17.158;2023-03-13T15:51:54;5.82;;;4.07;;
77586;SDS011;66744;49.716;17.158;2023-03-13T15:54:55;9.57;;;5.93;;
77586;SDS011;66744;49.716;17.158;2023-03-13T15:57:56;6.82;;;5.55;;
77586;SDS011;66744;49.716;17.158;2023-03-13T16:00:58;6.55;;;5.18;;
77586;SDS011;66744;49.716;17.158;2023-03-13T16:03:59;7.00;;;4.30;;
77586;SDS011;66744;49.716;17.158;2023-03-13T16:07:00;8.82;;;5.38;;
77586;SDS011;66744;49.716;17.158;2023-03-13T16:10:02;8.18;;;5.68;;
77586;SDS011;66744;49.716;17.158;2023-03-13T16:13:04;8.60;;;6.00;;
77586;SDS011;66744;49.716;17.158;2023-03-13T16:16:21;7.40;;;5.32;;
77586;SDS011;66744;49.716;17.158;2023-03-13T16:19:25;5.85;;;4.40;;
77586;SDS011;66744;49.716;17.158;2023-03-13T16:22:26;5.78;;;4.55;;
77586;SDS011;66744;49.716;17.158;2023-03-13T16:25:28;8.73;;;4.47;;
77586;SDS011;66744;49.716;17.158;2023-03-13T16:28:32;7.03;;;5.32;;
77586;SDS011;66744;49.716;17.158;2023-03-13T16:31:33;9.18;;;5.05;;
77586;SDS011;66744;49.716;17.158;2023-03-13T16:34:36;5.95;;;4.38;;
77586;SDS011;66744;49.716;17.158;2023-03-13T16:37:37;8.32;;;4.22;;
77586;SDS011;66744;49.716;17.158;2023-03-13T16:40:38;11.18;;;5.13;;
77586;SDS011;66744;49.716;17.158;2023-03-13T16:43:40;7.47;;;4.05;;
77586;SDS011;66744;49.716;17.158;2023-03-13T16:46:41;7.57;;;5.25;;
77586;SDS011;66744;49.716;17.158;2023-03-13T16:49:46;7.15;;;4.22;;
77586;SDS011;66744;49.716;17.158;2023-03-13T16:52:48;9.15;;;5.70;;
77586;SDS011;66744;49.716;17.158;2023-03-13T16:55:50;11.63;;;5.55;;
77586;SDS011;66744;49.716;17.158;2023-03-13T16:58:51;7.40;;;5.10;;
77586;SDS011;66744;49.716;17.158;2023-03-13T17:01:53;5.68;;;4.10;;
77586;SDS011;66744;49.716;17.158;2023-03-13T17:04:54;7.57;;;4.40;;
77586;SDS011;66744;49.716;17.158;2023-03-13T17:07:55;6.85;;;5.85;;
77586;SDS011;66744;49.716;17.158;2023-03-13T17:10:57;11.35;;;5.70;;
77586;SDS011;66744;49.716;17.158;2023-03-13T17:14:00;6.78;;;5.47;;
77586;SDS011;66744;49.716;17.158;2023-03-13T17:17:03;11.20;;;6.72;;
77586;SDS011;66744;49.716;17.158;2023-03-13T17:20:05;11.90;;;8.75;;
77586;SDS011;66744;49.716;17.158;2023-03-13T17:23:12;13.80;;;9.07;;
77586;SDS011;66744;49.716;17.158;2023-03-13T17:26:18;14.05;;;9.25;;
77586;SDS011;66744;49.716;17.158;2023-03-13T17:29:24;17.48;;;11.45;;
77586;SDS011;66744;49.716;17.158;2023-03-13T17:32:25;24.25;;;15.02;;
77586;SDS011;66744;49.716;17.158;2023-03-13T17:35:26;14.30;;;8.88;;
77586;SDS011;66744;49.716;17.158;2023-03-13T17:38:28;13.18;;;9.23;;
77586;SDS011;66744;49.716;17.158;2023-03-13T17:41:30;12.02;;;7.40;;
77586;SDS011;66744;49.716;17.158;2023-03-13T17:44:33;11.57;;;8.20;;
77586;SDS011;66744;49.716;17.158;2023-03-13T17:47:34;10.48;;;8.65;;
77586;SDS011;66744;49.716;17.158;2023-03-13T17:50:36;11.55;;;7.25;;
77586;SDS011;66744;49.716;17.158;2023-03-13T17:53:40;14.27;;;7.07;;
77586;SDS011;66744;49.716;17.158;2023-03-13T17:56:41;10.80;;;7.80;;
77586;SDS011;66744;49.716;17.158;2023-03-13T17:59:43;10.27;;;6.57;;
77586;SDS011;66744;49.716;17.158;2023-03-13T18:02:45;7.97;;;6.60;;
77586;SDS011;66744;49.716;17.158;2023-03-13T18:05:46;9.77;;;5.75;;
77586;SDS011;66744;49.716;17.158;2023-03-13T18:08:49;9.27;;;6.50;;
77586;SDS011;66744;49.716;17.158;2023-03-13T18:11:51;7.85;;;5.95;;
77586;SDS011;66744;49.716;17.158;2023-03-13T18:14:52;8.25;;;5.30;;
77586;SDS011;66744;49.716;17.158;2023-03-13T18:17:53;7.85;;;5.43;;
77586;SDS011;66744;49.716;17.158;2023-03-13T18:20:55;9.00;;;5.30;;
77586;SDS011;66744;49.716;17.158;2023-03-13T18:23:56;9.45;;;5.97;;
77586;SDS011;66744;49.716;17.158;2023-03-13T18:26:58;10.15;;;6.35;;
77586;SDS011;66744;49.716;17.158;2023-03-13T18:30:13;8.40;;;6.28;;
77586;SDS011;66744;49.716;17.158;2023-03-13T18:33:16;10.85;;;7.53;;
77586;SDS011;66744;49.716;17.158;2023-03-13T18:36:18;11.27;;;7.32;;
77586;SDS011;66744;49.716;17.158;2023-03-13T18:39:20;10.90;;;7.70;;
77586;SDS011;66744;49.716;17.158;2023-03-13T18:42:21;10.45;;;7.07;;
77586;SDS011;66744;49.716;17.158;2023-03-13T18:45:24;8.73;;;6.03;;
77586;SDS011;66744;49.716;17.158;2023-03-13T18:48:26;10.00;;;6.32;;
77586;SDS011;66744;49.716;17.158;2023-03-13T18:51:29;9.52;;;6.13;;
77586;SDS011;66744;49.716;17.158;2023-03-13T18:54:30;9.95;;;6.15;;
77586;SDS011;66744;49.716;17.158;2023-03-13T18:57:32;10.02;;;6.20;;
77586;SDS011;66744;49.716;17.158;2023-03-13T19:00:33;8.82;;;5.57;;
77586;SDS011;66744;49.716;17.158;2023-03-13T19:03:34;11.10;;;6.95;;
77586;SDS011;66744;49.716;17.158;2023-03-13T19:06:35;12.02;;;6.50;;
77586;SDS011;66744;49.716;17.158;2023-03-13T19:09:37;11.38;;;6.97;;
77586;SDS011;66744;49.716;17.158;2023-03-13T19:12:38;9.73;;;7.43;;
77586;SDS011;66744;49.716;17.158;2023-03-13T19:15:39;11.68;;;7.43;;
77586;SDS011;66744;49.716;17.158;2023-03-13T19:18:41;8.75;;;5.55;;
77586;SDS011;66744;49.716;17.158;2023-03-13T19:21:43;13.02;;;8.40;;
77586;SDS011;66744;49.716;17.158;2023-03-13T19:24:44;12.13;;;8.02;;
77586;SDS011;66744;49.716;17.158;2023-03-13T19:27:46;16.70;;;8.10;;
77586;SDS011;66744;49.716;17.158;2023-03-13T19:30:48;20.83;;;11.88;;
77586;SDS011;66744;49.716;17.158;2023-03-13T19:33:50;11.75;;;7.95;;
77586;SDS011;66744;49.716;17.158;2023-03-13T19:36:55;18.23;;;11.18;;
77586;SDS011;66744;49.716;17.158;2023-03-13T19:39:56;10.45;;;6.82;;